createdAt,value
2017-09-17T00:06:46.203Z,8.3
2017-09-17T00:16:59.763Z,8.6
2017-09-17T00:27:13.174Z,8.4
2017-09-17T00:37:26.235Z,8.4
2017-09-17T00:47:40.840Z,8.6
2017-09-17T00:57:55.370Z,8.3
2017-09-17T01:08:10.107Z,7.9
2017-09-17T01:18:24.832Z,8.1
2017-09-17T01:28:39.297Z,8.6
2017-09-17T01:38:53.875Z,7.8
2017-09-17T01:49:07.773Z,7.6
2017-09-17T01:59:22.159Z,7.5
2017-09-17T02:09:32.362Z,7.3
2017-09-17T02:19:45.698Z,7.4
2017-09-17T02:30:00.263Z,7.2
2017-09-17T02:40:14.991Z,7.3
2017-09-17T02:50:28.538Z,7.3
2017-09-17T03:00:41.853Z,7.3
2017-09-17T03:10:56.068Z,7.3
2017-09-17T03:21:09.211Z,7.6
2017-09-17T03:31:23.292Z,7.7
2017-09-17T03:41:36.756Z,7.7
2017-09-17T03:51:50.488Z,7.8
2017-09-17T04:02:03.905Z,7.3
2017-09-17T04:12:18.547Z,8
2017-09-17T04:22:28.739Z,8.1
2017-09-17T04:32:42.497Z,8.2
2017-09-17T04:42:56.294Z,8.1
2017-09-17T04:53:10.236Z,8.2
2017-09-17T05:03:24.159Z,8.5
2017-09-17T05:13:37.260Z,8.3
2017-09-17T05:23:50.651Z,8.7
2017-09-17T05:34:04.405Z,8.3
2017-09-17T05:44:19.111Z,8.3
2017-09-17T05:54:32.206Z,8.1
2017-09-17T06:04:46.068Z,8.2
2017-09-17T06:15:00.417Z,7.5
2017-09-17T06:25:15.376Z,7.4
2017-09-17T06:35:25.575Z,7.5
2017-09-17T06:45:39.956Z,7.4
2017-09-17T06:55:54.540Z,7.3
2017-09-17T07:06:09.285Z,7.3
2017-09-17T07:16:23.445Z,7.7
2017-09-17T07:26:37.388Z,9.2
2017-09-17T07:36:51.523Z,11.3
2017-09-17T07:47:05.312Z,15.4
2017-09-17T07:57:18.929Z,24
2017-09-17T08:07:32.352Z,46.6
2017-09-17T08:17:46.062Z,61.8
2017-09-17T08:27:59.279Z,67
2017-09-17T08:38:13.174Z,69.9
2017-09-17T08:48:23.501Z,72
2017-09-17T08:58:37.160Z,79.5
2017-09-17T09:08:52.038Z,81.7
2017-09-17T09:19:05.990Z,81.5
2017-09-17T09:29:20.300Z,82.2
2017-09-17T09:39:34.388Z,84.5
2017-09-17T09:49:48.116Z,86.2
2017-09-17T10:00:02.376Z,86.7
2017-09-17T10:10:15.972Z,85.2
2017-09-17T10:20:29.247Z,84.4
2017-09-17T10:30:44.443Z,83
2017-09-17T10:40:58.825Z,85.6
2017-09-17T10:51:13.891Z,86.3
2017-09-17T11:01:24.229Z,83.2
2017-09-17T11:11:37.504Z,83.7
2017-09-17T11:21:51.646Z,87
2017-09-17T11:32:06.524Z,86.2
2017-09-17T11:42:21.099Z,88.8
2017-09-17T11:52:36.042Z,88.5
2017-09-17T12:02:50.182Z,86.4
2017-09-17T12:13:03.699Z,86.7
2017-09-17T12:23:17.147Z,87.1
2017-09-17T12:33:31.216Z,87.4
2017-09-17T12:43:45.203Z,85.5
2017-09-17T12:54:00.200Z,86.4
2017-09-17T13:04:15.256Z,86.3
2017-09-17T13:14:25.636Z,85.5
2017-09-17T13:24:38.860Z,85.2
2017-09-17T13:34:52.668Z,80.9
2017-09-17T13:45:07.095Z,58
2017-09-17T13:55:21.259Z,39.6
2017-09-17T14:05:34.727Z,33
2017-09-17T14:15:48.306Z,66.6
2017-09-17T14:26:02.826Z,38.7
2017-09-17T14:36:16.447Z,68.5
2017-09-17T14:46:29.954Z,64.3
2017-09-17T14:56:44.434Z,59.4
2017-09-17T15:06:58.463Z,59
2017-09-17T15:17:12.185Z,60.1
2017-09-17T15:27:22.440Z,64.7
2017-09-17T15:37:37.289Z,69.2
2017-09-17T15:47:51.448Z,67.4
2017-09-17T15:58:06.321Z,71.2
2017-09-17T16:08:20.335Z,68.2
2017-09-17T16:18:34.010Z,53.8
2017-09-17T16:28:47.439Z,53.1
2017-09-17T16:39:01.751Z,26.7
2017-09-17T16:49:16.638Z,18.7
2017-09-17T16:59:30.150Z,15.4
2017-09-17T17:09:43.664Z,11.2
2017-09-17T17:19:57.534Z,7.9
2017-09-17T17:30:11.411Z,5.7
2017-09-17T17:40:21.631Z,4.2
2017-09-17T17:50:36.253Z,3.1
2017-09-17T18:00:49.500Z,2.8
2017-09-17T18:11:03.455Z,3.4
2017-09-17T18:21:18.155Z,3.8
2017-09-17T18:31:32.657Z,3.9
2017-09-17T18:41:47.659Z,4.2
2017-09-17T18:52:01.079Z,3.3
2017-09-17T19:02:15.485Z,2.4
2017-09-17T19:12:28.590Z,1.8
2017-09-17T19:22:42.386Z,1.4
2017-09-17T19:32:56.408Z,1.2
2017-09-17T19:43:10.761Z,1.1
2017-09-17T19:53:20.981Z,0.8
2017-09-17T20:03:35.388Z,0.6
2017-09-17T20:13:49.282Z,0.5
2017-09-17T20:24:03.380Z,0.2
2017-09-17T20:34:16.824Z,0.2
2017-09-17T20:44:31.484Z,0.2
2017-09-17T20:54:44.574Z,0.5
2017-09-17T21:04:59.143Z,0.5
2017-09-17T21:15:14.182Z,0
2017-09-17T21:25:27.285Z,0
2017-09-17T21:35:41.117Z,0
2017-09-17T21:45:56.013Z,0
2017-09-17T21:56:09.444Z,0.1
2017-09-17T22:06:19.632Z,0
2017-09-17T22:16:33.853Z,0
2017-09-17T22:26:48.195Z,0
2017-09-17T22:37:01.644Z,0
2017-09-17T22:47:15.011Z,0.3
2017-09-17T22:57:29.100Z,0.2
2017-09-17T23:07:42.186Z,0.3
2017-09-17T23:17:55.573Z,0.5
2017-09-17T23:28:09.659Z,0.3
2017-09-17T23:38:23.803Z,0.5
2017-09-17T23:48:38.842Z,0.2
2017-09-17T23:58:52.706Z,0.4
